Jessieville, AR

1:54 AM CDT on September 20, 2014 (GMT -0500)
RAWS JESSIEVILLE AR US | Change Station
CLOSE
Current Station
Personal Weather Station
Location: Jessieville, AR
Elevation: 674 ft
Nearby Weather Stations

Elev 674 ft 34.69 °N, 93.22 °W | Updated 52 minutes ago

Clear
Clear
64 °F
Feels Like 64 °F
N
0
Wind Variable Wind from North
Gusts 2.0 mph

Today
High -- | Low -- °F
--% Chance of Precip.
Yesterday
High -- | Low -- °F
Precip. -- in
6:58 AM 7:11 PM
Waning Crescent, 14% visible
Pressure 29.99 in
Visibility 7.0 miles
Clouds Clear
Dew Point 64 °F
Humidity 99%
Rainfall 0.00 in
Snow Depth Not available.
UV 0 out of 12
Pollen 10.10 out of 12
Air Quality Not available.
Flu Activity Not available.
METAR KHOT 200553Z AUTO 00000KT 7SM CLR 22/20 A3001 RMK AO2 SLP155 T02170200 10261 20211 403000189 58003

More Conditions Fewer Conditions

Pressure 29.99 in
Visibility 7.0 miles
Clouds Clear
Dew Point 64 °F
Humidity 99%
Rainfall 0.00 in
Snow Depth Not available.
UV 0 out of 12
Pollen 10.10 out of 12
Air Quality Not available.
Flu Activity Not available.
METAR KHOT 200553Z AUTO 00000KT 7SM CLR 22/20 A3001 RMK AO2 SLP155 T02170200 10261 20211 403000189 58003

More Conditions Fewer Conditions

10-Day Weather Forecast

Almanac

Astronomy

Sep. 20, 2014 Rise Set
Actual Time 6:58 AM CDT 7:11 PM CDT
Civil Twilight 6:33 AM CDT 7:37 PM CDT
Nautical Twilight 6:04 AM CDT 8:06 PM CDT
Astronomical Twilight 5:34 AM CDT 8:36 PM CDT
Moon 3:45 AM CDT 5:10 PM CDT
Length of Visible Light 13h 03m
Length of Day
12h 12m
Tomorrow will be 2m 8s shorter.
Waning Crescent, 14% of the Moon is Illuminated
Today
Waning Crescent
Sep 24
New
Oct 1
First Quarter
Oct 8
Full
Oct 15
Last Quarter

Today's Extremes

State Highs State Lows

Community

WunderPhotos

Upload Photos

1,754,779 photos uploaded!

WunderBlogs® & News

Nearby

Snow Depth

Station Depth Elevation
No new snow has been reported.

Earthquake Activity

City Distance Mag. Time & Date
No recent earthquake activity has been reported nearby.
Minimum magnitude displayed is 2.5.

Coastal Water Temperatures

Place Temperature
No Stations Reporting

Nearby Weather Stations